sensor_id;sensor_type;location;lat;lon;timestamp;P1;durP1;ratioP1;P2;durP2;ratioP2
8574;SDS011;4325;42.520;27.448;2022-12-13T00:00:58;4.00;;;0.60;;
8574;SDS011;4325;42.520;27.448;2022-12-13T00:03:25;1.30;;;0.43;;
8574;SDS011;4325;42.520;27.448;2022-12-13T00:05:52;3.37;;;0.60;;
8574;SDS011;4325;42.520;27.448;2022-12-13T00:08:18;4.10;;;0.60;;
8574;SDS011;4325;42.520;27.448;2022-12-13T00:10:45;0.50;;;0.50;;
8574;SDS011;4325;42.520;27.448;2022-12-13T00:13:12;0.77;;;0.60;;
8574;SDS011;4325;42.520;27.448;2022-12-13T00:15:39;0.57;;;0.50;;
8574;SDS011;4325;42.520;27.448;2022-12-13T00:18:07;0.57;;;0.57;;
8574;SDS011;4325;42.520;27.448;2022-12-13T00:20:38;0.60;;;0.50;;
8574;SDS011;4325;42.520;27.448;2022-12-13T00:23:05;0.93;;;0.43;;
8574;SDS011;4325;42.520;27.448;2022-12-13T00:25:32;0.50;;;0.50;;
8574;SDS011;4325;42.520;27.448;2022-12-13T00:27:59;0.40;;;0.40;;
8574;SDS011;4325;42.520;27.448;2022-12-13T00:30:26;0.50;;;0.50;;
8574;SDS011;4325;42.520;27.448;2022-12-13T00:32:55;0.50;;;0.50;;
8574;SDS011;4325;42.520;27.448;2022-12-13T00:35:23;0.97;;;0.40;;
8574;SDS011;4325;42.520;27.448;2022-12-13T00:37:50;1.90;;;0.43;;
8574;SDS011;4325;42.520;27.448;2022-12-13T00:40:17;0.60;;;0.60;;
8574;SDS011;4325;42.520;27.448;2022-12-13T00:42:45;1.07;;;0.60;;
8574;SDS011;4325;42.520;27.448;2022-12-13T00:45:12;1.07;;;0.70;;
8574;SDS011;4325;42.520;27.448;2022-12-13T00:47:39;0.97;;;0.67;;
8574;SDS011;4325;42.520;27.448;2022-12-13T00:50:06;1.90;;;0.70;;
8574;SDS011;4325;42.520;27.448;2022-12-13T00:52:34;1.03;;;0.80;;
8574;SDS011;4325;42.520;27.448;2022-12-13T00:55:01;0.50;;;0.50;;
8574;SDS011;4325;42.520;27.448;2022-12-13T00:57:28;0.63;;;0.60;;
8574;SDS011;4325;42.520;27.448;2022-12-13T00:59:55;1.13;;;0.90;;
8574;SDS011;4325;42.520;27.448;2022-12-13T01:02:23;1.70;;;0.87;;
8574;SDS011;4325;42.520;27.448;2022-12-13T01:04:50;0.67;;;0.63;;
8574;SDS011;4325;42.520;27.448;2022-12-13T01:07:17;1.57;;;0.70;;
8574;SDS011;4325;42.520;27.448;2022-12-13T01:09:45;0.90;;;0.70;;
8574;SDS011;4325;42.520;27.448;2022-12-13T01:12:12;0.70;;;0.70;;
8574;SDS011;4325;42.520;27.448;2022-12-13T01:14:39;0.50;;;0.50;;
8574;SDS011;4325;42.520;27.448;2022-12-13T01:17:06;0.80;;;0.80;;
8574;SDS011;4325;42.520;27.448;2022-12-13T01:19:34;0.50;;;0.50;;
8574;SDS011;4325;42.520;27.448;2022-12-13T01:22:02;1.13;;;0.47;;
8574;SDS011;4325;42.520;27.448;2022-12-13T01:24:30;0.60;;;0.60;;
8574;SDS011;4325;42.520;27.448;2022-12-13T01:26:59;2.60;;;0.70;;
8574;SDS011;4325;42.520;27.448;2022-12-13T01:29:26;0.70;;;0.60;;
8574;SDS011;4325;42.520;27.448;2022-12-13T01:31:53;1.73;;;1.00;;
8574;SDS011;4325;42.520;27.448;2022-12-13T01:34:20;1.07;;;0.77;;
8574;SDS011;4325;42.520;27.448;2022-12-13T01:36:48;1.00;;;0.80;;
8574;SDS011;4325;42.520;27.448;2022-12-13T01:39:16;0.60;;;0.60;;
8574;SDS011;4325;42.520;27.448;2022-12-13T01:41:46;0.40;;;0.40;;
8574;SDS011;4325;42.520;27.448;2022-12-13T01:47:21;0.40;;;0.40;;
8574;SDS011;4325;42.520;27.448;2022-12-13T01:49:51;1.37;;;0.67;;
8574;SDS011;4325;42.520;27.448;2022-12-13T01:52:21;0.60;;;0.60;;
8574;SDS011;4325;42.520;27.448;2022-12-13T01:54:48;0.60;;;0.57;;
8574;SDS011;4325;42.520;27.448;2022-12-13T01:57:17;0.60;;;0.50;;
8574;SDS011;4325;42.520;27.448;2022-12-13T01:59:47;1.30;;;0.80;;
8574;SDS011;4325;42.520;27.448;2022-12-13T02:02:15;1.10;;;0.90;;
8574;SDS011;4325;42.520;27.448;2022-12-13T02:05:01;1.07;;;0.87;;
8574;SDS011;4325;42.520;27.448;2022-12-13T02:07:32;0.80;;;0.80;;
8574;SDS011;4325;42.520;27.448;2022-12-13T02:10:01;0.80;;;0.70;;
8574;SDS011;4325;42.520;27.448;2022-12-13T02:12:31;0.80;;;0.70;;
8574;SDS011;4325;42.520;27.448;2022-12-13T02:15:01;1.20;;;0.93;;
8574;SDS011;4325;42.520;27.448;2022-12-13T02:17:34;0.77;;;0.77;;
8574;SDS011;4325;42.520;27.448;2022-12-13T02:20:19;1.33;;;0.70;;
8574;SDS011;4325;42.520;27.448;2022-12-13T02:23:16;0.97;;;0.90;;
8574;SDS011;4325;42.520;27.448;2022-12-13T02:26:08;1.67;;;0.87;;
8574;SDS011;4325;42.520;27.448;2022-12-13T02:28:56;1.10;;;1.00;;
8574;SDS011;4325;42.520;27.448;2022-12-13T02:31:40;0.97;;;0.87;;
8574;SDS011;4325;42.520;27.448;2022-12-13T02:34:12;0.80;;;0.80;;
8574;SDS011;4325;42.520;27.448;2022-12-13T02:36:49;1.00;;;0.93;;
8574;SDS011;4325;42.520;27.448;2022-12-13T02:39:29;0.90;;;0.83;;
8574;SDS011;4325;42.520;27.448;2022-12-13T02:42:00;2.30;;;1.00;;
8574;SDS011;4325;42.520;27.448;2022-12-13T02:44:32;1.00;;;0.90;;
8574;SDS011;4325;42.520;27.448;2022-12-13T02:47:05;1.37;;;1.00;;
8574;SDS011;4325;42.520;27.448;2022-12-13T02:49:36;0.90;;;0.90;;
8574;SDS011;4325;42.520;27.448;2022-12-13T02:52:08;0.80;;;0.80;;
8574;SDS011;4325;42.520;27.448;2022-12-13T02:54:37;1.40;;;1.30;;
8574;SDS011;4325;42.520;27.448;2022-12-13T02:59:54;1.17;;;1.07;;
8574;SDS011;4325;42.520;27.448;2022-12-13T03:02:24;1.60;;;1.40;;
8574;SDS011;4325;42.520;27.448;2022-12-13T03:05:01;1.90;;;1.53;;
8574;SDS011;4325;42.520;27.448;2022-12-13T03:07:54;2.50;;;1.70;;
8574;SDS011;4325;42.520;27.448;2022-12-13T03:10:32;2.40;;;1.60;;
8574;SDS011;4325;42.520;27.448;2022-12-13T03:13:06;2.07;;;1.87;;
8574;SDS011;4325;42.520;27.448;2022-12-13T03:15:57;1.97;;;1.80;;
8574;SDS011;4325;42.520;27.448;2022-12-13T03:18:26;2.07;;;1.67;;
8574;SDS011;4325;42.520;27.448;2022-12-13T03:20:57;1.93;;;1.50;;
8574;SDS011;4325;42.520;27.448;2022-12-13T03:23:28;1.83;;;1.50;;
8574;SDS011;4325;42.520;27.448;2022-12-13T03:25:57;2.10;;;1.90;;
8574;SDS011;4325;42.520;27.448;2022-12-13T03:28:28;2.90;;;2.00;;
8574;SDS011;4325;42.520;27.448;2022-12-13T03:30:54;2.23;;;1.70;;
8574;SDS011;4325;42.520;27.448;2022-12-13T03:33:21;1.73;;;1.50;;
8574;SDS011;4325;42.520;27.448;2022-12-13T03:35:49;2.10;;;1.80;;
8574;SDS011;4325;42.520;27.448;2022-12-13T03:38:17;2.60;;;2.10;;
8574;SDS011;4325;42.520;27.448;2022-12-13T03:40:44;2.60;;;2.30;;
8574;SDS011;4325;42.520;27.448;2022-12-13T03:43:11;2.60;;;2.40;;
8574;SDS011;4325;42.520;27.448;2022-12-13T03:45:38;2.43;;;2.03;;
8574;SDS011;4325;42.520;27.448;2022-12-13T03:48:05;5.40;;;2.40;;
8574;SDS011;4325;42.520;27.448;2022-12-13T03:50:32;2.63;;;1.93;;
8574;SDS011;4325;42.520;27.448;2022-12-13T03:53:00;4.63;;;2.10;;
8574;SDS011;4325;42.520;27.448;2022-12-13T03:55:28;2.10;;;1.90;;
8574;SDS011;4325;42.520;27.448;2022-12-13T03:57:55;2.30;;;2.00;;
8574;SDS011;4325;42.520;27.448;2022-12-13T04:00:22;2.50;;;1.90;;
8574;SDS011;4325;42.520;27.448;2022-12-13T04:02:49;2.97;;;2.03;;
8574;SDS011;4325;42.520;27.448;2022-12-13T04:05:16;2.10;;;1.90;;
8574;SDS011;4325;42.520;27.448;2022-12-13T04:07:43;2.20;;;2.00;;
8574;SDS011;4325;42.520;27.448;2022-12-13T04:10:11;2.50;;;2.10;;
8574;SDS011;4325;42.520;27.448;2022-12-13T04:12:38;2.80;;;2.53;;
8574;SDS011;4325;42.520;27.448;2022-12-13T04:15:21;3.27;;;2.60;;
8574;SDS011;4325;42.520;27.448;2022-12-13T04:17:48;3.03;;;2.43;;
8574;SDS011;4325;42.520;27.448;2022-12-13T04:20:15;3.43;;;2.60;;
8574;SDS011;4325;42.520;27.448;2022-12-13T04:22:42;3.23;;;2.20;;
8574;SDS011;4325;42.520;27.448;2022-12-13T04:25:10;4.30;;;3.30;;
8574;SDS011;4325;42.520;27.448;2022-12-13T04:27:37;3.70;;;2.87;;
8574;SDS011;4325;42.520;27.448;2022-12-13T04:30:04;2.90;;;2.40;;
8574;SDS011;4325;42.520;27.448;2022-12-13T04:32:32;3.07;;;2.27;;
8574;SDS011;4325;42.520;27.448;2022-12-13T04:34:59;4.57;;;3.20;;
8574;SDS011;4325;42.520;27.448;2022-12-13T04:37:26;3.63;;;2.90;;
8574;SDS011;4325;42.520;27.448;2022-12-13T04:39:53;3.27;;;2.73;;
8574;SDS011;4325;42.520;27.448;2022-12-13T04:42:21;2.37;;;2.13;;
8574;SDS011;4325;42.520;27.448;2022-12-13T04:44:48;4.03;;;2.20;;
8574;SDS011;4325;42.520;27.448;2022-12-13T04:47:15;2.40;;;2.13;;
8574;SDS011;4325;42.520;27.448;2022-12-13T04:49:42;2.50;;;2.00;;
8574;SDS011;4325;42.520;27.448;2022-12-13T04:52:09;2.83;;;2.30;;
8574;SDS011;4325;42.520;27.448;2022-12-13T04:54:37;3.40;;;2.00;;
8574;SDS011;4325;42.520;27.448;2022-12-13T04:57:04;3.50;;;2.23;;
8574;SDS011;4325;42.520;27.448;2022-12-13T04:59:34;5.73;;;3.87;;
8574;SDS011;4325;42.520;27.448;2022-12-13T05:02:02;3.60;;;3.00;;
8574;SDS011;4325;42.520;27.448;2022-12-13T05:04:29;2.87;;;2.13;;
8574;SDS011;4325;42.520;27.448;2022-12-13T05:06:56;2.93;;;2.43;;
8574;SDS011;4325;42.520;27.448;2022-12-13T05:09:23;4.50;;;2.90;;
8574;SDS011;4325;42.520;27.448;2022-12-13T05:11:50;10.57;;;6.47;;
8574;SDS011;4325;42.520;27.448;2022-12-13T05:14:17;4.87;;;3.53;;
8574;SDS011;4325;42.520;27.448;2022-12-13T05:16:45;4.40;;;3.10;;
8574;SDS011;4325;42.520;27.448;2022-12-13T05:19:12;3.80;;;3.00;;
8574;SDS011;4325;42.520;27.448;2022-12-13T05:21:39;3.23;;;2.60;;
8574;SDS011;4325;42.520;27.448;2022-12-13T05:24:06;4.00;;;2.70;;
8574;SDS011;4325;42.520;27.448;2022-12-13T05:26:34;4.00;;;3.13;;
8574;SDS011;4325;42.520;27.448;2022-12-13T05:29:01;4.30;;;3.23;;
8574;SDS011;4325;42.520;27.448;2022-12-13T05:31:28;4.80;;;3.17;;
8574;SDS011;4325;42.520;27.448;2022-12-13T05:33:56;2.90;;;2.43;;
8574;SDS011;4325;42.520;27.448;2022-12-13T05:36:23;7.73;;;4.00;;
8574;SDS011;4325;42.520;27.448;2022-12-13T05:38:50;2.67;;;2.00;;
8574;SDS011;4325;42.520;27.448;2022-12-13T05:41:17;3.10;;;2.43;;
8574;SDS011;4325;42.520;27.448;2022-12-13T05:43:47;2.87;;;2.40;;
8574;SDS011;4325;42.520;27.448;2022-12-13T05:46:14;2.87;;;2.57;;
8574;SDS011;4325;42.520;27.448;2022-12-13T05:48:41;3.33;;;2.87;;
8574;SDS011;4325;42.520;27.448;2022-12-13T05:51:09;3.27;;;2.50;;
8574;SDS011;4325;42.520;27.448;2022-12-13T05:53:36;2.37;;;2.17;;
8574;SDS011;4325;42.520;27.448;2022-12-13T05:56:04;4.63;;;3.13;;
8574;SDS011;4325;42.520;27.448;2022-12-13T05:58:31;5.00;;;3.47;;
8574;SDS011;4325;42.520;27.448;2022-12-13T06:01:02;4.63;;;2.80;;
8574;SDS011;4325;42.520;27.448;2022-12-13T06:03:30;4.33;;;3.00;;
8574;SDS011;4325;42.520;27.448;2022-12-13T06:05:59;4.50;;;3.13;;
8574;SDS011;4325;42.520;27.448;2022-12-13T06:08:27;4.23;;;2.97;;
8574;SDS011;4325;42.520;27.448;2022-12-13T06:10:54;4.00;;;3.07;;
8574;SDS011;4325;42.520;27.448;2022-12-13T06:13:22;4.30;;;2.83;;
8574;SDS011;4325;42.520;27.448;2022-12-13T06:15:49;3.73;;;2.77;;
8574;SDS011;4325;42.520;27.448;2022-12-13T06:18:16;4.20;;;3.57;;
8574;SDS011;4325;42.520;27.448;2022-12-13T06:20:43;4.53;;;3.20;;
8574;SDS011;4325;42.520;27.448;2022-12-13T06:23:11;4.53;;;3.27;;
8574;SDS011;4325;42.520;27.448;2022-12-13T06:25:39;3.43;;;2.70;;
8574;SDS011;4325;42.520;27.448;2022-12-13T06:28:07;4.50;;;3.20;;
8574;SDS011;4325;42.520;27.448;2022-12-13T06:30:34;6.30;;;3.30;;
8574;SDS011;4325;42.520;27.448;2022-12-13T06:33:02;12.33;;;6.63;;
8574;SDS011;4325;42.520;27.448;2022-12-13T06:35:29;6.17;;;4.37;;
8574;SDS011;4325;42.520;27.448;2022-12-13T06:37:56;5.87;;;4.23;;
8574;SDS011;4325;42.520;27.448;2022-12-13T06:40:23;3.77;;;3.30;;
8574;SDS011;4325;42.520;27.448;2022-12-13T06:42:51;5.43;;;3.53;;
8574;SDS011;4325;42.520;27.448;2022-12-13T06:45:18;4.27;;;3.10;;
8574;SDS011;4325;42.520;27.448;2022-12-13T06:47:45;5.00;;;3.60;;
8574;SDS011;4325;42.520;27.448;2022-12-13T06:50:11;6.40;;;3.93;;
8574;SDS011;4325;42.520;27.448;2022-12-13T06:52:39;3.90;;;3.13;;
8574;SDS011;4325;42.520;27.448;2022-12-13T06:55:06;3.40;;;2.87;;
8574;SDS011;4325;42.520;27.448;2022-12-13T06:57:33;6.57;;;3.13;;
8574;SDS011;4325;42.520;27.448;2022-12-13T07:00:02;4.47;;;2.90;;
8574;SDS011;4325;42.520;27.448;2022-12-13T07:02:29;5.00;;;3.23;;
8574;SDS011;4325;42.520;27.448;2022-12-13T07:04:56;4.93;;;3.30;;
8574;SDS011;4325;42.520;27.448;2022-12-13T07:07:23;3.90;;;3.07;;
8574;SDS011;4325;42.520;27.448;2022-12-13T07:09:51;4.30;;;3.17;;
8574;SDS011;4325;42.520;27.448;2022-12-13T07:12:18;5.27;;;3.20;;
8574;SDS011;4325;42.520;27.448;2022-12-13T07:14:46;5.23;;;3.33;;
8574;SDS011;4325;42.520;27.448;2022-12-13T07:17:14;5.27;;;3.17;;
8574;SDS011;4325;42.520;27.448;2022-12-13T07:19:41;3.97;;;3.23;;
8574;SDS011;4325;42.520;27.448;2022-12-13T07:22:08;14.00;;;3.93;;
8574;SDS011;4325;42.520;27.448;2022-12-13T07:24:35;5.13;;;3.47;;
8574;SDS011;4325;42.520;27.448;2022-12-13T07:27:02;5.40;;;3.40;;
8574;SDS011;4325;42.520;27.448;2022-12-13T07:29:29;5.50;;;3.40;;
8574;SDS011;4325;42.520;27.448;2022-12-13T07:31:56;4.47;;;3.00;;
8574;SDS011;4325;42.520;27.448;2022-12-13T07:34:24;6.67;;;3.97;;
8574;SDS011;4325;42.520;27.448;2022-12-13T07:36:51;6.00;;;3.53;;
8574;SDS011;4325;42.520;27.448;2022-12-13T07:39:18;6.53;;;3.33;;
8574;SDS011;4325;42.520;27.448;2022-12-13T07:41:44;5.60;;;3.33;;
8574;SDS011;4325;42.520;27.448;2022-12-13T07:44:12;7.90;;;3.80;;
8574;SDS011;4325;42.520;27.448;2022-12-13T07:46:39;3.97;;;3.20;;
8574;SDS011;4325;42.520;27.448;2022-12-13T07:49:06;5.40;;;3.20;;
8574;SDS011;4325;42.520;27.448;2022-12-13T07:51:34;7.50;;;4.33;;
8574;SDS011;4325;42.520;27.448;2022-12-13T07:54:01;5.70;;;3.70;;
8574;SDS011;4325;42.520;27.448;2022-12-13T07:56:28;5.77;;;3.60;;
8574;SDS011;4325;42.520;27.448;2022-12-13T07:58:55;5.67;;;3.80;;
8574;SDS011;4325;42.520;27.448;2022-12-13T08:01:22;7.50;;;3.53;;
8574;SDS011;4325;42.520;27.448;2022-12-13T08:03:49;8.47;;;4.60;;
8574;SDS011;4325;42.520;27.448;2022-12-13T08:06:15;4.47;;;3.40;;
8574;SDS011;4325;42.520;27.448;2022-12-13T08:08:44;4.93;;;3.40;;
8574;SDS011;4325;42.520;27.448;2022-12-13T08:11:14;4.80;;;3.40;;
8574;SDS011;4325;42.520;27.448;2022-12-13T08:13:41;7.40;;;3.77;;
8574;SDS011;4325;42.520;27.448;2022-12-13T08:16:10;6.40;;;4.30;;
8574;SDS011;4325;42.520;27.448;2022-12-13T08:18:39;4.90;;;3.70;;
8574;SDS011;4325;42.520;27.448;2022-12-13T08:21:06;8.20;;;3.97;;
8574;SDS011;4325;42.520;27.448;2022-12-13T08:23:33;4.53;;;3.70;;
8574;SDS011;4325;42.520;27.448;2022-12-13T08:26:02;6.80;;;4.93;;
8574;SDS011;4325;42.520;27.448;2022-12-13T08:28:30;6.77;;;4.50;;
8574;SDS011;4325;42.520;27.448;2022-12-13T08:31:01;5.80;;;4.33;;
8574;SDS011;4325;42.520;27.448;2022-12-13T08:33:29;4.67;;;3.87;;
8574;SDS011;4325;42.520;27.448;2022-12-13T08:35:56;4.20;;;3.73;;
8574;SDS011;4325;42.520;27.448;2022-12-13T08:38:23;7.27;;;4.00;;
8574;SDS011;4325;42.520;27.448;2022-12-13T08:40:50;5.03;;;3.67;;
8574;SDS011;4325;42.520;27.448;2022-12-13T08:43:18;4.33;;;3.70;;
8574;SDS011;4325;42.520;27.448;2022-12-13T08:45:45;4.87;;;4.13;;
8574;SDS011;4325;42.520;27.448;2022-12-13T08:48:15;6.43;;;3.87;;
8574;SDS011;4325;42.520;27.448;2022-12-13T08:50:41;8.10;;;3.97;;
8574;SDS011;4325;42.520;27.448;2022-12-13T08:53:08;5.40;;;3.90;;
8574;SDS011;4325;42.520;27.448;2022-12-13T08:55:35;7.50;;;3.10;;
8574;SDS011;4325;42.520;27.448;2022-12-13T08:58:03;5.43;;;3.93;;
8574;SDS011;4325;42.520;27.448;2022-12-13T09:00:34;7.00;;;3.90;;
8574;SDS011;4325;42.520;27.448;2022-12-13T09:03:01;4.93;;;4.00;;
8574;SDS011;4325;42.520;27.448;2022-12-13T09:05:28;5.47;;;3.90;;
8574;SDS011;4325;42.520;27.448;2022-12-13T09:07:56;6.37;;;3.43;;
8574;SDS011;4325;42.520;27.448;2022-12-13T09:10:23;7.67;;;3.90;;
8574;SDS011;4325;42.520;27.448;2022-12-13T09:12:52;5.33;;;3.47;;
8574;SDS011;4325;42.520;27.448;2022-12-13T09:15:19;5.57;;;4.03;;
8574;SDS011;4325;42.520;27.448;2022-12-13T09:17:47;6.90;;;4.23;;
8574;SDS011;4325;42.520;27.448;2022-12-13T09:20:14;4.77;;;3.73;;
8574;SDS011;4325;42.520;27.448;2022-12-13T09:22:41;6.30;;;4.10;;
8574;SDS011;4325;42.520;27.448;2022-12-13T09:25:08;4.20;;;3.80;;
8574;SDS011;4325;42.520;27.448;2022-12-13T09:27:35;5.40;;;4.40;;
8574;SDS011;4325;42.520;27.448;2022-12-13T09:30:02;5.33;;;4.10;;
8574;SDS011;4325;42.520;27.448;2022-12-13T09:32:29;5.60;;;3.90;;
8574;SDS011;4325;42.520;27.448;2022-12-13T09:34:59;5.47;;;3.83;;
8574;SDS011;4325;42.520;27.448;2022-12-13T09:37:26;10.03;;;4.40;;
8574;SDS011;4325;42.520;27.448;2022-12-13T09:39:54;5.07;;;4.00;;
8574;SDS011;4325;42.520;27.448;2022-12-13T09:42:21;6.73;;;3.77;;
8574;SDS011;4325;42.520;27.448;2022-12-13T09:44:51;4.43;;;3.90;;
8574;SDS011;4325;42.520;27.448;2022-12-13T09:47:25;5.40;;;4.60;;
8574;SDS011;4325;42.520;27.448;2022-12-13T09:49:55;7.57;;;5.10;;
8574;SDS011;4325;42.520;27.448;2022-12-13T09:52:27;6.63;;;4.43;;
8574;SDS011;4325;42.520;27.448;2022-12-13T09:55:01;4.93;;;4.40;;
8574;SDS011;4325;42.520;27.448;2022-12-13T09:57:29;6.23;;;4.23;;
8574;SDS011;4325;42.520;27.448;2022-12-13T09:59:57;5.47;;;4.40;;
8574;SDS011;4325;42.520;27.448;2022-12-13T10:02:25;4.30;;;3.80;;
8574;SDS011;4325;42.520;27.448;2022-12-13T10:04:55;6.60;;;3.93;;
8574;SDS011;4325;42.520;27.448;2022-12-13T10:07:37;4.77;;;3.83;;
8574;SDS011;4325;42.520;27.448;2022-12-13T10:10:05;7.50;;;4.90;;
8574;SDS011;4325;42.520;27.448;2022-12-13T10:12:34;5.40;;;4.40;;
8574;SDS011;4325;42.520;27.448;2022-12-13T10:15:03;4.80;;;4.07;;
8574;SDS011;4325;42.520;27.448;2022-12-13T10:17:31;6.00;;;3.83;;
8574;SDS011;4325;42.520;27.448;2022-12-13T10:20:03;8.00;;;5.20;;
8574;SDS011;4325;42.520;27.448;2022-12-13T10:22:31;4.80;;;4.30;;
8574;SDS011;4325;42.520;27.448;2022-12-13T10:25:00;5.67;;;4.30;;
8574;SDS011;4325;42.520;27.448;2022-12-13T10:27:29;5.57;;;4.00;;
8574;SDS011;4325;42.520;27.448;2022-12-13T10:30:03;5.53;;;4.47;;
8574;SDS011;4325;42.520;27.448;2022-12-13T10:32:40;5.20;;;4.43;;
8574;SDS011;4325;42.520;27.448;2022-12-13T10:35:20;7.23;;;4.10;;
8574;SDS011;4325;42.520;27.448;2022-12-13T10:37:50;5.27;;;3.93;;
8574;SDS011;4325;42.520;27.448;2022-12-13T10:40:31;4.13;;;3.70;;
8574;SDS011;4325;42.520;27.448;2022-12-13T10:43:12;5.13;;;3.60;;
8574;SDS011;4325;42.520;27.448;2022-12-13T10:45:40;4.43;;;3.37;;
8574;SDS011;4325;42.520;27.448;2022-12-13T10:48:16;5.53;;;3.40;;
8574;SDS011;4325;42.520;27.448;2022-12-13T10:50:54;4.27;;;3.53;;
8574;SDS011;4325;42.520;27.448;2022-12-13T10:53:27;4.50;;;3.50;;
8574;SDS011;4325;42.520;27.448;2022-12-13T10:55:57;7.07;;;4.40;;
8574;SDS011;4325;42.520;27.448;2022-12-13T10:58:33;5.50;;;4.03;;
8574;SDS011;4325;42.520;27.448;2022-12-13T11:01:07;5.30;;;4.33;;
8574;SDS011;4325;42.520;27.448;2022-12-13T11:03:54;5.20;;;3.77;;
8574;SDS011;4325;42.520;27.448;2022-12-13T11:06:24;8.03;;;4.60;;
8574;SDS011;4325;42.520;27.448;2022-12-13T11:08:51;7.37;;;5.57;;
8574;SDS011;4325;42.520;27.448;2022-12-13T11:11:25;5.23;;;4.10;;
8574;SDS011;4325;42.520;27.448;2022-12-13T11:13:54;5.00;;;4.23;;
8574;SDS011;4325;42.520;27.448;2022-12-13T11:16:25;6.80;;;5.00;;
8574;SDS011;4325;42.520;27.448;2022-12-13T11:18:56;5.13;;;4.63;;
8574;SDS011;4325;42.520;27.448;2022-12-13T11:21:26;5.13;;;4.47;;
8574;SDS011;4325;42.520;27.448;2022-12-13T11:23:57;4.80;;;4.17;;
8574;SDS011;4325;42.520;27.448;2022-12-13T11:26:27;5.50;;;4.60;;
8574;SDS011;4325;42.520;27.448;2022-12-13T11:29:10;7.70;;;4.40;;
8574;SDS011;4325;42.520;27.448;2022-12-13T11:31:52;8.17;;;5.93;;
8574;SDS011;4325;42.520;27.448;2022-12-13T11:34:25;6.93;;;4.03;;
8574;SDS011;4325;42.520;27.448;2022-12-13T11:37:05;5.23;;;4.63;;
8574;SDS011;4325;42.520;27.448;2022-12-13T11:39:40;5.73;;;4.60;;
8574;SDS011;4325;42.520;27.448;2022-12-13T11:42:16;5.43;;;4.70;;
8574;SDS011;4325;42.520;27.448;2022-12-13T11:44:50;8.63;;;4.30;;
8574;SDS011;4325;42.520;27.448;2022-12-13T11:47:26;12.20;;;4.60;;
8574;SDS011;4325;42.520;27.448;2022-12-13T11:49:59;5.90;;;4.97;;
8574;SDS011;4325;42.520;27.448;2022-12-13T11:52:32;6.03;;;5.00;;
8574;SDS011;4325;42.520;27.448;2022-12-13T11:55:05;5.30;;;4.33;;
8574;SDS011;4325;42.520;27.448;2022-12-13T11:57:43;5.67;;;4.77;;
8574;SDS011;4325;42.520;27.448;2022-12-13T12:00:21;6.00;;;4.20;;
8574;SDS011;4325;42.520;27.448;2022-12-13T12:02:57;5.60;;;4.53;;
8574;SDS011;4325;42.520;27.448;2022-12-13T12:05:32;6.07;;;4.90;;
8574;SDS011;4325;42.520;27.448;2022-12-13T12:08:04;7.97;;;4.80;;
8574;SDS011;4325;42.520;27.448;2022-12-13T12:10:39;5.87;;;4.40;;
8574;SDS011;4325;42.520;27.448;2022-12-13T12:13:12;6.00;;;5.03;;
8574;SDS011;4325;42.520;27.448;2022-12-13T12:15:45;13.43;;;4.73;;
8574;SDS011;4325;42.520;27.448;2022-12-13T12:18:17;11.30;;;5.70;;
8574;SDS011;4325;42.520;27.448;2022-12-13T12:20:51;11.40;;;5.13;;
8574;SDS011;4325;42.520;27.448;2022-12-13T12:23:30;20.30;;;5.77;;
8574;SDS011;4325;42.520;27.448;2022-12-13T12:26:07;9.50;;;4.70;;
8574;SDS011;4325;42.520;27.448;2022-12-13T12:28:45;5.20;;;4.70;;
8574;SDS011;4325;42.520;27.448;2022-12-13T12:31:25;5.37;;;4.87;;
8574;SDS011;4325;42.520;27.448;2022-12-13T12:33:59;5.03;;;4.53;;
8574;SDS011;4325;42.520;27.448;2022-12-13T12:36:47;8.07;;;4.53;;
8574;SDS011;4325;42.520;27.448;2022-12-13T12:39:27;7.70;;;4.37;;
8574;SDS011;4325;42.520;27.448;2022-12-13T12:42:10;5.67;;;5.17;;
8574;SDS011;4325;42.520;27.448;2022-12-13T12:45:19;4.83;;;4.33;;
8574;SDS011;4325;42.520;27.448;2022-12-13T12:47:57;5.67;;;5.07;;
8574;SDS011;4325;42.520;27.448;2022-12-13T12:50:32;5.57;;;5.03;;
8574;SDS011;4325;42.520;27.448;2022-12-13T12:53:14;5.17;;;4.73;;
8574;SDS011;4325;42.520;27.448;2022-12-13T12:55:57;6.13;;;5.53;;
8574;SDS011;4325;42.520;27.448;2022-12-13T12:58:32;6.13;;;5.30;;
8574;SDS011;4325;42.520;27.448;2022-12-13T13:01:13;7.03;;;5.30;;
8574;SDS011;4325;42.520;27.448;2022-12-13T13:03:51;6.13;;;4.93;;
8574;SDS011;4325;42.520;27.448;2022-12-13T13:06:20;7.73;;;5.80;;
8574;SDS011;4325;42.520;27.448;2022-12-13T13:08:50;6.53;;;4.87;;
8574;SDS011;4325;42.520;27.448;2022-12-13T13:11:23;7.43;;;5.13;;
8574;SDS011;4325;42.520;27.448;2022-12-13T13:14:23;8.27;;;5.00;;
8574;SDS011;4325;42.520;27.448;2022-12-13T13:16:54;7.63;;;4.93;;
8574;SDS011;4325;42.520;27.448;2022-12-13T13:22:28;6.57;;;5.47;;
8574;SDS011;4325;42.520;27.448;2022-12-13T13:24:57;11.57;;;4.83;;
8574;SDS011;4325;42.520;27.448;2022-12-13T13:27:40;10.23;;;4.80;;
8574;SDS011;4325;42.520;27.448;2022-12-13T13:30:15;6.07;;;4.53;;
8574;SDS011;4325;42.520;27.448;2022-12-13T13:32:45;8.77;;;4.87;;
8574;SDS011;4325;42.520;27.448;2022-12-13T13:44:52;6.27;;;4.87;;
8574;SDS011;4325;42.520;27.448;2022-12-13T13:47:36;5.83;;;5.23;;
8574;SDS011;4325;42.520;27.448;2022-12-13T13:53:27;8.20;;;5.73;;
8574;SDS011;4325;42.520;27.448;2022-12-13T13:56:30;6.93;;;5.90;;
8574;SDS011;4325;42.520;27.448;2022-12-13T14:02:23;7.93;;;5.93;;
8574;SDS011;4325;42.520;27.448;2022-12-13T14:05:27;7.33;;;5.30;;
8574;SDS011;4325;42.520;27.448;2022-12-13T14:08:31;7.43;;;5.37;;
8574;SDS011;4325;42.520;27.448;2022-12-13T14:11:22;9.43;;;5.33;;
8574;SDS011;4325;42.520;27.448;2022-12-13T14:17:39;8.63;;;5.50;;
8574;SDS011;4325;42.520;27.448;2022-12-13T14:20:42;8.30;;;5.63;;
8574;SDS011;4325;42.520;27.448;2022-12-13T14:23:39;9.47;;;6.50;;
8574;SDS011;4325;42.520;27.448;2022-12-13T14:29:10;12.53;;;5.97;;
8574;SDS011;4325;42.520;27.448;2022-12-13T14:31:40;12.17;;;6.30;;
8574;SDS011;4325;42.520;27.448;2022-12-13T14:34:15;7.57;;;5.40;;
8574;SDS011;4325;42.520;27.448;2022-12-13T14:36:52;8.77;;;5.53;;
8574;SDS011;4325;42.520;27.448;2022-12-13T14:39:21;8.93;;;6.27;;
8574;SDS011;4325;42.520;27.448;2022-12-13T14:41:50;9.93;;;7.07;;
8574;SDS011;4325;42.520;27.448;2022-12-13T14:44:20;9.50;;;6.90;;
8574;SDS011;4325;42.520;27.448;2022-12-13T14:46:49;9.60;;;6.47;;
8574;SDS011;4325;42.520;27.448;2022-12-13T14:49:17;8.63;;;6.10;;
8574;SDS011;4325;42.520;27.448;2022-12-13T14:51:45;8.53;;;5.90;;
8574;SDS011;4325;42.520;27.448;2022-12-13T14:54:16;9.37;;;6.47;;
8574;SDS011;4325;42.520;27.448;2022-12-13T14:56:54;12.20;;;6.63;;
8574;SDS011;4325;42.520;27.448;2022-12-13T14:59:23;14.73;;;6.33;;
8574;SDS011;4325;42.520;27.448;2022-12-13T15:01:54;9.40;;;6.53;;
8574;SDS011;4325;42.520;27.448;2022-12-13T15:04:24;11.20;;;6.33;;
8574;SDS011;4325;42.520;27.448;2022-12-13T15:06:54;8.60;;;6.00;;
8574;SDS011;4325;42.520;27.448;2022-12-13T15:09:24;11.37;;;6.57;;
8574;SDS011;4325;42.520;27.448;2022-12-13T15:11:53;11.70;;;6.07;;
8574;SDS011;4325;42.520;27.448;2022-12-13T15:14:22;10.00;;;6.73;;
8574;SDS011;4325;42.520;27.448;2022-12-13T15:16:52;8.60;;;6.57;;
8574;SDS011;4325;42.520;27.448;2022-12-13T15:19:21;10.10;;;7.27;;
8574;SDS011;4325;42.520;27.448;2022-12-13T15:21:54;8.13;;;6.47;;
8574;SDS011;4325;42.520;27.448;2022-12-13T15:24:24;8.67;;;6.30;;
8574;SDS011;4325;42.520;27.448;2022-12-13T15:26:56;9.80;;;6.23;;
8574;SDS011;4325;42.520;27.448;2022-12-13T15:29:25;8.67;;;6.20;;
8574;SDS011;4325;42.520;27.448;2022-12-13T15:31:54;10.27;;;6.93;;
8574;SDS011;4325;42.520;27.448;2022-12-13T15:34:29;8.70;;;6.20;;
8574;SDS011;4325;42.520;27.448;2022-12-13T15:36:59;8.47;;;6.30;;
8574;SDS011;4325;42.520;27.448;2022-12-13T15:39:29;7.53;;;6.07;;
8574;SDS011;4325;42.520;27.448;2022-12-13T15:42:03;10.17;;;7.30;;
8574;SDS011;4325;42.520;27.448;2022-12-13T15:44:31;11.97;;;7.27;;
8574;SDS011;4325;42.520;27.448;2022-12-13T15:47:06;10.37;;;7.43;;
8574;SDS011;4325;42.520;27.448;2022-12-13T15:49:39;10.43;;;7.30;;
8574;SDS011;4325;42.520;27.448;2022-12-13T15:52:22;9.33;;;7.20;;
8574;SDS011;4325;42.520;27.448;2022-12-13T15:54:54;11.17;;;7.00;;